Time;durP1;ratioP1;P1;durP2;ratioP2;P2;SDS_P1;SDS_P2;PMS_P1;PMS_P2;Temp;Humidity;BMP_temperature;BMP_pressure;BME280_temperature;BME280_humidity;BME280_pressure;Samples;Min_cycle;Max_cycle;Signal;HPM_P1;HPM_P2
2021/03/04 00:00:03;;;;;;;109.75;50.88;;;;;;;8.42;100.00;101843.09;4942401;28;20089;-74
2021/03/04 00:02:36;;;;;;;116.80;49.97;;;;;;;8.40;100.00;101829.75;4933041;28;20039;-73
2021/03/04 00:05:02;;;;;;;114.05;53.00;;;;;;;8.41;100.00;101836.00;4923287;29;20134;-73
2021/03/04 00:07:28;;;;;;;114.43;52.28;;;;;;;8.42;100.00;101832.38;4949339;28;20696;-74
2021/03/04 00:09:54;;;;;;;116.63;53.55;;;;;;;8.42;100.00;101832.38;4926534;29;20031;-74
2021/03/04 00:12:20;;;;;;;123.53;56.70;;;;;;;8.42;100.00;101830.59;4925525;29;20050;-74
2021/03/04 00:14:45;;;;;;;128.60;57.08;;;;;;;8.43;100.00;101829.66;4931984;28;20031;-74
2021/03/04 00:17:10;;;;;;;129.75;61.80;;;;;;;8.42;100.00;101819.00;4942094;28;20036;-74
2021/03/04 00:19:36;;;;;;;138.98;65.50;;;;;;;8.42;100.00;101811.84;4914554;28;20043;-75
2021/03/04 00:22:02;;;;;;;134.35;63.08;;;;;;;8.45;100.00;101808.22;4928953;29;20089;-75
2021/03/04 00:24:28;;;;;;;149.63;68.30;;;;;;;8.55;100.00;101811.38;4928028;28;20278;-75
2021/03/04 00:26:57;;;;;;;150.48;67.13;;;;;;;8.51;100.00;101816.00;4929488;29;20517;-75
2021/03/04 00:29:25;;;;;;;136.30;63.33;;;;;;;8.51;100.00;101816.00;4929080;29;20114;-74
2021/03/04 00:31:51;;;;;;;143.27;62.65;;;;;;;8.52;100.00;101809.69;4941726;28;20042;-75
2021/03/04 00:34:17;;;;;;;142.65;63.03;;;;;;;8.49;100.00;101799.13;4928442;29;20094;-75
2021/03/04 00:36:42;;;;;;;140.80;62.53;;;;;;;8.48;100.00;101800.91;4930960;28;20524;-75
2021/03/04 00:39:08;;;;;;;138.40;63.55;;;;;;;8.47;100.00;101806.31;4930419;29;20055;-75
2021/03/04 00:41:38;;;;;;;157.45;68.03;;;;;;;8.50;100.00;101809.78;4930651;28;20150;-75
2021/03/04 00:44:04;;;;;;;154.43;65.65;;;;;;;8.50;100.00;101814.25;4935447;29;20474;-75
2021/03/04 00:46:30;;;;;;;149.38;63.60;;;;;;;8.47;100.00;101803.66;4926491;28;20136;-74
2021/03/04 00:48:56;;;;;;;138.95;64.07;;;;;;;8.44;100.00;101798.44;4939262;29;20031;-75
2021/03/04 00:51:21;;;;;;;146.23;62.47;;;;;;;8.42;100.00;101800.28;4933965;29;20040;-75
2021/03/04 00:53:47;;;;;;;134.27;58.60;;;;;;;8.42;100.00;101794.94;4944420;28;20031;-75
2021/03/04 00:56:12;;;;;;;141.55;64.40;;;;;;;8.42;100.00;101774.41;4926564;29;20031;-75
2021/03/04 00:58:37;;;;;;;131.98;62.22;;;;;;;8.41;100.00;101771.78;4926580;28;20035;-74
2021/03/04 01:01:04;;;;;;;131.35;60.25;;;;;;;8.33;100.00;101779.25;4916708;29;20039;-75
2021/03/04 01:03:30;;;;;;;137.35;62.40;;;;;;;8.33;100.00;101787.28;4929657;28;20114;-74
2021/03/04 01:05:58;;;;;;;151.05;68.35;;;;;;;8.32;100.00;101788.19;4945861;28;20109;-74
2021/03/04 01:08:24;;;;;;;144.30;62.53;;;;;;;8.31;100.00;101783.78;4930052;28;20058;-74
2021/03/04 01:10:50;;;;;;;149.43;63.72;;;;;;;8.32;100.00;101788.19;4926629;29;20031;-75
2021/03/04 01:13:17;;;;;;;140.55;64.65;;;;;;;8.31;100.00;101787.31;4934989;29;20474;-75
2021/03/04 01:15:43;;;;;;;146.48;65.72;;;;;;;8.32;100.00;101788.19;4942395;28;20482;-75
2021/03/04 01:18:09;;;;;;;141.00;65.65;;;;;;;8.30;100.00;101795.38;4941994;28;20106;-74
2021/03/04 01:20:34;;;;;;;147.27;65.25;;;;;;;8.30;100.00;101792.69;4938503;28;20413;-74
2021/03/04 01:23:00;;;;;;;132.98;61.00;;;;;;;8.30;100.00;101787.34;4925886;29;20099;-75
2021/03/04 01:25:29;;;;;;;141.32;63.65;;;;;;;8.28;100.00;101787.38;4926286;28;20055;-75
2021/03/04 01:27:55;;;;;;;142.63;63.05;;;;;;;8.28;100.00;101786.50;4940679;28;20066;-74
2021/03/04 01:30:25;;;;;;;140.02;62.03;;;;;;;8.26;100.00;101791.06;4933646;29;20175;-76
2021/03/04 01:32:50;;;;;;;144.30;62.85;;;;;;;8.24;100.00;101779.53;4924749;29;20359;-75
2021/03/04 01:35:16;;;;;;;128.93;61.10;;;;;;;8.24;100.00;101775.06;4930475;29;20320;-75
2021/03/04 01:37:42;;;;;;;129.25;61.75;;;;;;;8.23;100.00;101775.13;4941875;28;20540;-75
2021/03/04 01:40:15;;;;;;;143.15;64.55;;;;;;;8.21;100.00;101760.97;4924519;28;20030;-75
2021/03/04 01:42:40;;;;;;;138.93;62.90;;;;;;;8.19;100.00;101761.00;4928867;28;20118;-74
2021/03/04 01:45:10;;;;;;;142.35;60.83;;;;;;;8.17;100.00;101768.22;4937252;28;20189;-74
2021/03/04 01:47:37;;;;;;;127.97;60.03;;;;;;;8.11;100.00;101763.97;4937258;28;20039;-75
2021/03/04 01:50:05;;;;;;;147.30;62.13;;;;;;;8.09;100.00;101755.13;4929148;29;20031;-75
2021/03/04 01:52:31;;;;;;;139.45;60.53;;;;;;;8.06;100.00;101755.25;4935158;28;20038;-75
2021/03/04 01:54:59;;;;;;;128.82;60.15;;;;;;;8.05;100.00;101753.50;4915692;29;20162;-75
2021/03/04 01:57:26;;;;;;;141.80;63.28;;;;;;;8.04;100.00;101745.53;4941602;28;20069;-75
2021/03/04 01:59:53;;;;;;;133.73;58.75;;;;;;;7.95;100.00;101746.75;4930539;29;20573;-75
2021/03/04 02:02:18;;;;;;;128.15;59.30;;;;;;;7.87;100.00;101738.13;4942140;28;20082;-75
2021/03/04 02:04:44;;;;;;;131.25;60.65;;;;;;;7.84;100.00;101738.25;4927926;28;20027;-75
2021/03/04 02:07:12;;;;;;;139.55;61.63;;;;;;;7.86;100.00;101746.22;4928533;29;20046;-75
2021/03/04 02:09:41;;;;;;;152.75;67.82;;;;;;;7.87;100.00;101743.47;4910287;28;20073;-75
2021/03/04 02:12:27;;;;;;;147.98;66.13;;;;;;;7.85;100.00;101742.66;4927506;29;20057;-75
2021/03/04 02:14:56;;;;;;;155.07;71.63;;;;;;;7.87;100.00;101732.78;4945316;28;20031;-74
2021/03/04 02:17:26;;;;;;;166.48;71.65;;;;;;;7.86;100.00;101738.19;4944226;28;20043;-74
2021/03/04 02:20:03;;;;;;;156.70;67.85;;;;;;;7.88;100.00;101726.53;4947771;28;20041;-74
2021/03/04 02:22:52;;;;;;;157.13;68.75;;;;;;;7.92;100.00;101729.94;4921040;28;20110;-74
2021/03/04 02:25:39;;;;;;;162.45;72.20;;;;;;;7.93;100.00;101726.34;4927632;29;20530;-75
2021/03/04 02:28:06;;;;;;;163.15;73.18;;;;;;;7.89;100.00;101720.25;4932606;28;20034;-75
2021/03/04 02:30:35;;;;;;;172.80;73.70;;;;;;;7.98;100.00;101719.88;4926963;29;20079;-74
2021/03/04 02:33:10;;;;;;;181.00;73.90;;;;;;;7.91;100.00;101713.03;4939595;28;20044;-75
2021/03/04 02:35:38;;;;;;;175.57;75.20;;;;;;;7.81;100.00;101719.66;4929148;28;20027;-74
2021/03/04 02:38:23;;;;;;;184.80;77.55;;;;;;;7.77;100.00;101704.66;4913513;29;20066;-74
2021/03/04 02:40:51;;;;;;;171.95;74.47;;;;;;;7.80;100.00;101699.19;4954396;28;20031;-75
2021/03/04 02:43:19;;;;;;;171.05;75.28;;;;;;;7.79;100.00;101692.09;4906459;29;20486;-74
2021/03/04 02:45:45;;;;;;;178.60;76.13;;;;;;;7.76;100.00;101697.56;4928435;28;20043;-74
2021/03/04 02:48:14;;;;;;;167.82;75.95;;;;;;;7.73;100.00;101682.50;4946449;28;20035;-74
2021/03/04 02:50:45;;;;;;;182.77;75.63;;;;;;;7.77;100.00;101687.75;4941503;28;20583;-74
2021/03/04 02:53:11;;;;;;;184.60;77.10;;;;;;;7.73;100.00;101676.28;4918270;29;20616;-75
2021/03/04 02:55:38;;;;;;;184.48;78.30;;;;;;;7.72;100.00;101679.88;4930699;28;20038;-75
2021/03/04 02:58:06;;;;;;;163.35;75.05;;;;;;;7.70;100.00;101671.09;4934904;29;20541;-75
2021/03/04 03:00:32;;;;;;;170.82;72.45;;;;;;;7.69;100.00;101672.88;4929404;29;20039;-75
2021/03/04 03:03:00;;;;;;;165.00;72.03;;;;;;;7.70;100.00;101671.09;4932716;28;20069;-75
2021/03/04 03:05:32;;;;;;;159.30;70.97;;;;;;;7.72;100.00;101672.75;4929480;28;20461;-74
2021/03/04 03:07:59;;;;;;;154.65;66.35;;;;;;;7.70;100.00;101671.97;4923439;29;20032;-74
2021/03/04 03:10:25;;;;;;;150.93;64.10;;;;;;;7.68;100.00;101657.78;4930925;29;20406;-75
2021/03/04 03:12:57;;;;;;;133.00;58.95;;;;;;;7.67;100.00;101655.16;4926548;28;20558;-74
2021/03/04 03:15:24;;;;;;;124.97;54.60;;;;;;;7.65;100.00;101655.19;4946546;28;20035;-74
2021/03/04 03:17:50;;;;;;;125.03;52.63;;;;;;;7.62;100.00;101641.09;4916227;28;20039;-74
2021/03/04 03:20:18;;;;;;;122.85;50.13;;;;;;;7.50;100.00;101638.88;4921677;29;20051;-74
2021/03/04 03:22:45;;;;;;;118.32;48.00;;;;;;;7.44;100.00;101642.66;4925705;28;20446;-75
2021/03/04 03:25:11;;;;;;;118.95;49.80;;;;;;;7.44;100.00;101637.31;4944553;28;20067;-75
2021/03/04 03:27:39;;;;;;;113.55;47.60;;;;;;;7.43;100.00;101632.00;4939032;28;20043;-74
2021/03/04 03:30:10;;;;;;;117.28;47.92;;;;;;;7.38;100.00;101633.97;4923896;29;20028;-74
2021/03/04 03:32:38;;;;;;;113.57;47.08;;;;;;;7.35;100.00;101634.09;4913673;28;20314;-75
2021/03/04 03:35:05;;;;;;;107.53;45.28;;;;;;;7.31;100.00;101636.88;4926458;29;20039;-75
2021/03/04 03:37:31;;;;;;;118.97;47.42;;;;;;;7.36;100.00;101630.50;4938430;28;20031;-77
2021/03/04 03:39:58;;;;;;;114.93;44.85;;;;;;;7.27;100.00;101629.03;4930446;28;21433;-77
2021/03/04 03:42:27;;;;;;;114.18;46.72;;;;;;;7.26;100.00;101628.16;4942362;28;20041;-77
2021/03/04 03:44:55;;;;;;;108.35;45.08;;;;;;;7.21;100.00;101624.78;4935017;28;20042;-77
2021/03/04 03:47:21;;;;;;;117.22;48.58;;;;;;;7.20;100.00;101633.72;4925329;29;20059;-77
2021/03/04 03:49:49;;;;;;;123.57;47.53;;;;;;;7.17;100.00;101639.16;4913935;28;20031;-77
2021/03/04 03:52:16;;;;;;;114.50;45.83;;;;;;;7.19;100.00;101642.66;4941462;28;20485;-77
2021/03/04 03:54:41;;;;;;;111.40;45.85;;;;;;;7.22;100.00;101639.88;4926602;28;20386;-77
2021/03/04 03:57:07;;;;;;;116.78;45.60;;;;;;;7.21;100.00;101640.81;4939471;28;20041;-77
2021/03/04 03:59:35;;;;;;;116.75;46.13;;;;;;;7.22;100.00;101637.19;4930562;28;20039;-77
2021/03/04 04:02:02;;;;;;;123.65;47.53;;;;;;;7.21;100.00;101635.47;4931921;29;20432;-76
2021/03/04 04:04:29;;;;;;;111.47;46.30;;;;;;;7.19;100.00;101631.97;4932290;28;20044;-77
2021/03/04 04:06:55;;;;;;;117.15;46.25;;;;;;;7.19;100.00;101625.75;4927945;29;20109;-77
2021/03/04 04:09:22;;;;;;;119.07;47.47;;;;;;;7.21;100.00;101640.81;4939050;28;20046;-76
2021/03/04 04:11:47;;;;;;;114.10;46.45;;;;;;;7.38;100.00;101647.34;4948399;28;20544;-76
2021/03/04 04:14:13;;;;;;;123.88;45.47;;;;;;;7.31;100.00;101644.88;4917903;29;20135;-76
2021/03/04 04:16:39;;;;;;;114.63;45.85;;;;;;;7.22;100.00;101631.84;4948757;28;20038;-76
2021/03/04 04:19:04;;;;;;;118.45;47.40;;;;;;;7.20;100.00;101633.72;4930182;29;20047;-76
2021/03/04 04:21:30;;;;;;;111.45;45.45;;;;;;;7.22;100.00;101631.84;4949680;28;20091;-76
2021/03/04 04:23:56;;;;;;;116.82;44.97;;;;;;;7.16;100.00;101621.41;4912835;29;20413;-77
2021/03/04 04:26:22;;;;;;;108.65;46.28;;;;;;;7.15;100.00;101616.13;4921059;29;20035;-76
2021/03/04 04:28:47;;;;;;;112.80;44.50;;;;;;;7.11;100.00;101612.69;4937119;28;20031;-76
2021/03/04 04:31:13;;;;;;;113.57;44.67;;;;;;;7.10;100.00;101605.59;4948450;28;20174;-77
2021/03/04 04:33:39;;;;;;;105.75;44.90;;;;;;;7.03;100.00;101596.09;4911846;28;20122;-76
2021/03/04 04:36:05;;;;;;;112.28;44.83;;;;;;;7.10;100.00;101589.56;4926039;29;20046;-77
2021/03/04 04:38:31;;;;;;;119.20;48.28;;;;;;;7.03;100.00;101582.75;4934109;28;20470;-76
2021/03/04 04:40:56;;;;;;;117.78;46.92;;;;;;;6.98;100.00;101576.66;4939164;28;20063;-77
2021/03/04 04:43:22;;;;;;;122.35;48.22;;;;;;;6.93;100.00;101580.44;4942792;28;20039;-77
2021/03/04 04:45:50;;;;;;;114.00;45.63;;;;;;;6.95;100.00;101584.81;4926221;28;20024;-77
2021/03/04 04:48:16;;;;;;;124.57;46.15;;;;;;;6.94;100.00;101577.72;4920144;29;20046;-76
2021/03/04 04:50:42;;;;;;;114.20;45.88;;;;;;;6.83;100.00;101577.22;4930314;28;20039;-76
2021/03/04 04:53:09;;;;;;;119.38;46.55;;;;;;;6.84;100.00;101577.19;4931711;29;20036;-77
2021/03/04 04:55:34;;;;;;;117.30;44.95;;;;;;;6.82;100.00;101573.69;4929788;29;20039;-77
2021/03/04 04:58:01;;;;;;;113.93;46.38;;;;;;;6.85;100.00;101570.06;4926417;29;20030;-77
2021/03/04 05:00:27;;;;;;;118.95;46.03;;;;;;;6.77;100.00;101580.13;4925924;28;20039;-77
2021/03/04 05:02:52;;;;;;;117.70;44.55;;;;;;;6.74;100.00;101570.41;4929612;29;20035;-77
2021/03/04 05:05:18;;;;;;;112.15;44.83;;;;;;;6.71;100.00;101562.53;4932526;29;20063;-77
2021/03/04 05:07:43;;;;;;;107.45;43.53;;;;;;;6.76;100.00;101562.34;4931554;28;21465;-77
2021/03/04 05:10:10;;;;;;;117.72;46.03;;;;;;;6.70;100.00;101562.56;4918906;29;20035;-77
2021/03/04 05:12:36;;;;;;;123.38;47.72;;;;;;;6.69;100.00;101561.69;4922015;28;20031;-77
2021/03/04 05:15:04;;;;;;;114.60;44.42;;;;;;;6.75;100.00;101574.81;4917478;29;20019;-77
2021/03/04 05:17:30;;;;;;;118.97;43.35;;;;;;;6.70;100.00;101583.91;4935128;28;20042;-77
2021/03/04 05:19:55;;;;;;;119.65;47.53;;;;;;;6.64;100.00;101578.78;4941961;28;20035;-77
2021/03/04 05:22:21;;;;;;;117.10;46.13;;;;;;;6.77;100.00;101585.47;4928028;29;20047;-77
2021/03/04 05:24:46;;;;;;;121.47;46.38;;;;;;;6.66;100.00;101588.50;4931036;28;20050;-77
2021/03/04 05:27:12;;;;;;;124.90;46.03;;;;;;;6.68;100.00;101583.97;4948503;28;20039;-76
2021/03/04 05:29:37;;;;;;;131.63;46.97;;;;;;;6.64;100.00;101576.13;4923960;28;20039;-77
2021/03/04 05:32:03;;;;;;;126.43;46.08;;;;;;;6.60;100.00;101571.84;4944678;28;20113;-77
2021/03/04 05:34:29;;;;;;;120.80;46.67;;;;;;;6.60;100.00;101577.16;4923848;28;20038;-77
2021/03/04 05:36:54;;;;;;;122.47;44.95;;;;;;;6.61;100.00;101574.41;4929142;29;20031;-77
2021/03/04 05:39:20;;;;;;;109.97;41.65;;;;;;;6.57;100.00;101561.25;4923022;29;20121;-77
2021/03/04 05:41:46;;;;;;;109.88;42.03;;;;;;;6.59;100.00;101552.28;4928434;28;20170;-77
2021/03/04 05:44:13;;;;;;;100.03;39.13;;;;;;;6.52;100.00;101549.88;4927680;29;20027;-76
2021/03/04 05:46:39;;;;;;;103.97;39.78;;;;;;;6.49;100.00;101554.38;4926894;28;20245;-77
2021/03/04 05:49:09;;;;;;;104.32;40.03;;;;;;;6.48;100.00;101562.47;4927168;29;20118;-77
2021/03/04 05:51:36;;;;;;;105.85;39.20;;;;;;;6.55;100.00;101585.31;4925071;28;20043;-77
2021/03/04 05:54:05;;;;;;;105.82;41.15;;;;;;;6.55;100.00;101616.44;4928019;29;20039;-77
2021/03/04 05:56:30;;;;;;;94.43;37.25;;;;;;;6.57;100.00;101625.28;4922181;28;20040;-77
2021/03/04 05:58:59;;;;;;;109.63;38.92;;;;;;;6.44;100.00;101623.00;4927650;29;20038;-77
2021/03/04 06:01:25;;;;;;;114.45;42.90;;;;;;;6.38;100.00;101609.00;4912904;29;20367;-77
2021/03/04 06:03:51;;;;;;;111.00;41.83;;;;;;;6.36;100.00;101601.03;4947229;28;20049;-77
2021/03/04 06:06:16;;;;;;;105.78;39.63;;;;;;;6.29;100.00;101596.00;4927675;29;20126;-77
2021/03/04 06:08:42;;;;;;;111.18;40.90;;;;;;;6.27;100.00;101580.03;4912390;29;20185;-77
2021/03/04 06:11:07;;;;;;;111.70;39.20;;;;;;;6.27;100.00;101580.03;4942975;28;20039;-77
2021/03/04 06:13:33;;;;;;;104.40;39.70;;;;;;;6.26;100.00;101577.41;4912333;28;20121;-76
2021/03/04 06:16:00;;;;;;;97.97;36.47;;;;;;;6.22;100.00;101576.66;4913545;29;20023;-77
2021/03/04 06:18:38;;;;;;;102.40;35.40;;;;;;;6.24;100.00;101582.78;4927201;29;20076;-77
2021/03/04 06:21:04;;;;;;;95.53;37.35;;;;;;;6.24;100.00;101574.78;4929373;29;20604;-77
2021/03/04 06:23:32;;;;;;;100.85;38.85;;;;;;;6.31;100.00;101571.00;4935119;28;20458;-77
2021/03/04 06:25:58;;;;;;;106.47;36.65;;;;;;;6.29;100.00;101567.53;4941364;28;20039;-76
2021/03/04 06:28:31;;;;;;;100.28;37.08;;;;;;;6.31;100.00;101565.66;4921520;29;20043;-77
2021/03/04 06:30:56;;;;;;;;;;;;;;;6.35;100.00;101572.66;4922477;29;20328;-77
2021/03/04 06:33:22;;;;;;;95.05;35.13;;;;;;;6.33;100.00;101579.84;4923425;29;20344;-77
2021/03/04 06:35:47;;;;;;;93.68;35.15;;;;;;;6.34;100.00;101578.03;4947364;28;20392;-78
2021/03/04 06:38:21;;;;;;;94.28;35.38;;;;;;;6.37;100.00;101583.25;4922880;29;20066;-76
2021/03/04 06:40:47;;;;;;;103.50;37.33;;;;;;;6.37;100.00;101581.47;4929686;28;20062;-76
2021/03/04 06:43:20;;;;;;;95.28;34.38;;;;;;;6.34;100.00;101588.69;4930999;29;20051;-76
2021/03/04 06:45:46;;;;;;;92.68;37.85;;;;;;;6.34;100.00;101592.25;4930020;28;20512;-77
2021/03/04 06:48:17;;;;;;;100.57;36.85;;;;;;;6.36;100.00;101584.16;4913541;29;20176;-77
2021/03/04 06:50:47;;;;;;;98.53;38.20;;;;;;;6.35;100.00;101583.31;4937670;28;20508;-76
2021/03/04 06:53:23;;;;;;;86.72;35.65;;;;;;;6.35;100.00;101575.31;4911989;29;20034;-77
2021/03/04 06:55:52;;;;;;;97.18;36.00;;;;;;;6.35;100.00;101577.13;4943315;28;20035;-76
2021/03/04 06:58:30;;;;;;;88.05;32.35;;;;;;;6.36;100.00;101571.72;4930459;29;20039;-77
2021/03/04 07:01:17;;;;;;;93.45;35.00;;;;;;;6.37;100.00;101569.91;4924746;29;20043;-77
2021/03/04 07:03:44;;;;;;;92.78;35.45;;;;;;;6.28;100.00;101571.13;4924364;28;20087;-76
2021/03/04 07:06:11;;;;;;;81.30;32.65;;;;;;;6.34;100.00;101557.59;4914019;28;20126;-77
2021/03/04 07:08:40;;;;;;;86.00;35.00;;;;;;;6.26;100.00;101556.94;4918633;28;20043;-77
2021/03/04 07:11:08;;;;;;;82.43;32.13;;;;;;;6.23;100.00;101540.19;4923252;29;20035;-77
2021/03/04 07:13:35;;;;;;;83.00;31.38;;;;;;;6.24;100.00;101556.13;4929374;28;20406;-77
2021/03/04 07:16:06;;;;;;;77.88;31.95;;;;;;;6.17;100.00;101554.59;4946306;28;20031;-77
2021/03/04 07:18:59;;;;;;;75.25;29.73;;;;;;;6.13;100.00;101560.94;4939263;28;20067;-75
2021/03/04 07:21:27;;;;;;;72.10;29.50;;;;;;;6.08;100.00;101553.09;4920482;29;20151;-78
2021/03/04 07:23:53;;;;;;;68.15;28.48;;;;;;;6.11;100.00;101549.44;4928838;29;20046;-77
2021/03/04 07:26:19;;;;;;;63.33;25.58;;;;;;;6.15;100.00;101553.78;4935645;28;20520;-77
2021/03/04 07:28:46;;;;;;;56.42;23.13;;;;;;;6.10;100.00;101555.72;4943949;28;20483;-77
2021/03/04 07:31:15;;;;;;;58.25;24.98;;;;;;;6.09;100.00;101545.97;4946430;28;20046;-77
2021/03/04 07:33:46;;;;;;;63.42;25.27;;;;;;;6.04;100.00;101546.13;4910725;28;20039;-77
2021/03/04 07:36:13;;;;;;;59.60;26.35;;;;;;;6.00;100.00;101538.28;4932629;29;20734;-78
2021/03/04 07:38:39;;;;;;;64.00;26.05;;;;;;;6.01;100.00;101545.34;4922524;28;20083;-78
2021/03/04 07:41:10;;;;;;;54.15;24.13;;;;;;;6.01;100.00;101540.03;4924727;29;20031;-77
2021/03/04 07:43:57;;;;;;;60.63;25.15;;;;;;;6.02;100.00;101524.00;4954288;28;20110;-77
2021/03/04 07:46:36;;;;;;;59.42;24.73;;;;;;;6.11;100.00;101520.13;4938408;28;20406;-77
2021/03/04 07:49:07;;;;;;;76.13;27.52;;;;;;;6.09;100.00;101516.66;4928232;29;20470;-77
2021/03/04 07:51:48;;;;;;;57.08;24.77;;;;;;;6.13;100.00;101517.41;4923169;28;20039;-77
2021/03/04 07:54:25;;;;;;;53.78;23.60;;;;;;;6.05;100.00;101515.00;4941028;29;20130;-77
2021/03/04 07:57:04;;;;;;;53.03;22.33;;;;;;;6.09;100.00;101527.31;4940325;28;20090;-77
2021/03/04 07:59:30;;;;;;;51.38;21.75;;;;;;;6.13;100.00;101528.97;4925013;28;20035;-77
2021/03/04 08:01:58;;;;;;;51.15;21.55;;;;;;;6.17;100.00;101524.41;4927325;29;20407;-78
2021/03/04 08:04:25;;;;;;;56.25;23.88;;;;;;;6.26;100.00;101534.75;4925824;29;20042;-77
2021/03/04 08:06:52;;;;;;;46.05;21.40;;;;;;;6.23;100.00;101534.88;4931784;28;20030;-77
2021/03/04 08:09:46;;;;;;;55.17;20.95;;;;;;;6.21;100.00;101532.25;4928715;29;20088;-77
2021/03/04 08:12:15;;;;;;;52.13;21.80;;;;;;;6.18;100.00;101532.34;4934676;28;20050;-77
2021/03/04 08:14:53;;;;;;;47.20;20.48;;;;;;;6.17;100.00;101535.94;4940907;28;20031;-77
2021/03/04 08:17:19;;;;;;;55.03;23.52;;;;;;;6.25;100.00;101543.66;4943687;28;20042;-77
2021/03/04 08:19:46;;;;;;;50.78;22.25;;;;;;;6.23;100.00;101541.06;4924527;28;20130;-77
2021/03/04 08:22:17;;;;;;;52.90;22.77;;;;;;;6.30;100.00;101537.25;4912720;29;20043;-77
2021/03/04 08:24:43;;;;;;;54.53;23.73;;;;;;;6.28;100.00;101524.91;4931704;28;20027;-75
2021/03/04 08:27:08;;;;;;;55.75;23.13;;;;;;;6.29;100.00;101535.53;4930738;29;20450;-77
2021/03/04 08:29:44;;;;;;;51.97;23.08;;;;;;;6.28;100.00;101528.47;4929192;28;20059;-77
2021/03/04 08:32:13;;;;;;;56.40;23.42;;;;;;;6.31;100.00;101517.66;4943388;28;20582;-77
2021/03/04 08:34:39;;;;;;;62.95;25.05;;;;;;;6.36;100.00;101510.38;4941226;28;20093;-76
2021/03/04 08:37:06;;;;;;;54.63;22.58;;;;;;;6.35;100.00;101503.34;4944258;28;20031;-76
2021/03/04 08:39:33;;;;;;;52.15;23.92;;;;;;;6.31;100.00;101496.34;4912115;28;20063;-77
2021/03/04 08:42:07;;;;;;;54.92;22.92;;;;;;;6.30;100.00;101499.94;4917517;29;20047;-77
2021/03/04 08:44:33;;;;;;;51.33;21.55;;;;;;;6.34;100.00;101512.25;4922639;28;20222;-77
2021/03/04 08:46:59;;;;;;;51.20;22.48;;;;;;;6.34;100.00;101516.72;4934730;29;20683;-77
2021/03/04 08:49:24;;;;;;;52.53;23.40;;;;;;;6.34;100.00;101525.59;4929679;29;20122;-77
2021/03/04 08:51:50;;;;;;;53.00;22.90;;;;;;;6.42;100.00;101528.84;4946087;28;20064;-76
2021/03/04 08:54:26;;;;;;;49.70;23.05;;;;;;;6.40;100.00;101543.16;4937562;29;20679;-76
2021/03/04 08:57:05;;;;;;;56.10;24.40;;;;;;;6.42;100.00;101533.28;4914736;28;20512;-76
2021/03/04 08:59:31;;;;;;;58.00;22.90;;;;;;;6.43;100.00;101533.25;4932183;28;20039;-78
2021/03/04 09:01:58;;;;;;;49.95;21.95;;;;;;;6.47;100.00;101529.59;4916853;29;20027;-77
2021/03/04 09:04:26;;;;;;;44.13;20.25;;;;;;;6.43;100.00;101527.03;4934481;28;20069;-77
2021/03/04 09:06:52;;;;;;;46.15;19.80;;;;;;;6.52;100.00;101531.19;4918714;29;20401;-77
2021/03/04 09:09:29;;;;;;;43.28;20.08;;;;;;;6.41;100.00;101532.47;4938088;28;20032;-77
2021/03/04 09:11:56;;;;;;;41.80;20.65;;;;;;;6.40;100.00;101533.38;4947288;28;20478;-77
2021/03/04 09:14:27;;;;;;;52.38;24.35;;;;;;;6.34;100.00;101528.25;4920884;28;20030;-77
2021/03/04 09:16:53;;;;;;;45.30;20.77;;;;;;;6.45;100.00;101530.53;4929610;28;20134;-77
2021/03/04 09:19:33;;;;;;;38.92;19.92;;;;;;;6.50;100.00;101537.47;4942614;28;20119;-77
2021/03/04 09:22:09;;;;;;;42.50;18.83;;;;;;;6.42;100.00;101536.84;4917859;29;20445;-77
2021/03/04 09:24:37;;;;;;;43.33;19.88;;;;;;;6.42;100.00;101535.97;4947149;28;20042;-77
2021/03/04 09:27:04;;;;;;;39.33;19.13;;;;;;;6.36;100.00;101531.72;4928553;29;20027;-77
2021/03/04 09:29:31;;;;;;;37.20;19.13;;;;;;;6.28;100.00;101527.59;4926539;28;20569;-77
2021/03/04 09:31:56;;;;;;;38.28;17.80;;;;;;;6.29;100.00;101532.88;4928189;29;20042;-77
2021/03/04 09:34:35;;;;;;;33.45;17.48;;;;;;;6.31;100.00;101536.34;4921374;29;20036;-77
2021/03/04 09:37:08;;;;;;;35.42;17.73;;;;;;;6.31;100.00;101533.66;4944036;28;20037;-75
2021/03/04 09:39:45;;;;;;;34.17;16.92;;;;;;;6.29;100.00;101524.88;4938698;28;20093;-75
2021/03/04 09:42:13;;;;;;;33.63;17.23;;;;;;;6.20;100.00;101535.84;4919530;29;20031;-74
2021/03/04 09:44:55;;;;;;;34.03;18.10;;;;;;;6.14;100.00;101530.72;4929947;28;20053;-75
2021/03/04 09:47:26;;;;;;;34.53;16.75;;;;;;;6.22;100.00;101528.66;4944890;28;20424;-75
2021/03/04 09:49:52;;;;;;;37.42;18.20;;;;;;;6.21;100.00;101520.72;4938630;28;20340;-75
2021/03/04 09:52:28;;;;;;;36.58;17.17;;;;;;;6.25;100.00;101522.34;4936449;28;20400;-75
2021/03/04 09:55:24;;;;;;;31.85;17.00;;;;;;;6.14;100.00;101520.03;4931486;28;20084;-75
2021/03/04 09:57:49;;;;;;;31.10;16.80;;;;;;;6.10;100.00;101526.41;4941395;28;20071;-75
2021/03/04 10:00:15;;;;;;;30.85;16.20;;;;;;;6.13;100.00;101522.75;4922869;29;20064;-75
2021/03/04 10:02:41;;;;;;;37.72;18.10;;;;;;;6.05;100.00;101520.31;4929736;28;20050;-75
2021/03/04 10:05:14;;;;;;;38.55;16.80;;;;;;;6.14;100.00;101514.72;4936965;28;20043;-75
2021/03/04 10:07:40;;;;;;;27.63;14.55;;;;;;;6.16;100.00;101518.22;4941242;28;20054;-75
2021/03/04 10:10:17;;;;;;;50.35;22.42;;;;;;;6.09;100.00;101525.53;4913402;29;20035;-75
2021/03/04 10:12:48;;;;;;;34.22;16.15;;;;;;;6.01;100.00;101532.03;4924939;28;20087;-74
2021/03/04 10:15:36;;;;;;;29.20;14.90;;;;;;;6.00;100.00;101527.59;4942107;28;20039;-75
2021/03/04 10:18:08;;;;;;;31.80;14.85;;;;;;;5.92;100.00;101519.00;4913264;29;20023;-75
2021/03/04 10:20:35;;;;;;;31.98;14.52;;;;;;;5.92;100.00;101516.34;4935947;28;20046;-75
2021/03/04 10:23:01;;;;;;;35.22;15.85;;;;;;;5.97;100.00;101511.75;4916124;29;20061;-75
2021/03/04 10:25:27;;;;;;;27.45;14.07;;;;;;;6.01;100.00;101513.38;4944751;28;20349;-74
2021/03/04 10:27:55;;;;;;;29.08;14.90;;;;;;;5.99;100.00;101504.53;4944206;28;20129;-75
2021/03/04 10:30:22;;;;;;;30.45;15.25;;;;;;;6.00;100.00;101501.84;4927396;29;20070;-75
2021/03/04 10:32:47;;;;;;;30.27;14.40;;;;;;;6.08;100.00;101504.25;4927935;28;20498;-75
2021/03/04 10:35:15;;;;;;;24.35;12.70;;;;;;;6.16;100.00;101501.34;4933121;29;20050;-75
2021/03/04 10:37:42;;;;;;;25.27;12.25;;;;;;;6.11;100.00;101509.47;4934261;28;20114;-75
2021/03/04 10:40:09;;;;;;;20.75;10.55;;;;;;;6.10;100.00;101518.41;4923399;29;20047;-75
2021/03/04 10:42:35;;;;;;;24.90;10.10;;;;;;;6.05;100.00;101518.53;4924666;28;20505;-75
2021/03/04 10:45:01;;;;;;;19.38;8.90;;;;;;;6.03;100.00;101528.41;4932568;29;20375;-75
2021/03/04 10:47:27;;;;;;;17.30;8.70;;;;;;;6.09;100.00;101527.31;4930945;29;20264;-75
2021/03/04 10:49:53;;;;;;;17.52;7.78;;;;;;;6.00;100.00;101522.28;4928821;28;20042;-75
2021/03/04 10:52:19;;;;;;;15.73;7.90;;;;;;;6.04;100.00;101530.16;4953373;28;20043;-75
2021/03/04 10:54:45;;;;;;;14.95;6.80;;;;;;;6.05;100.00;101525.66;4912203;28;20474;-75
2021/03/04 10:57:11;;;;;;;11.45;6.00;;;;;;;6.01;100.00;101532.03;4946514;28;20102;-75
2021/03/04 10:59:36;;;;;;;13.85;6.18;;;;;;;5.97;100.00;101533.06;4922161;28;20036;-74
2021/03/04 11:02:02;;;;;;;13.88;6.05;;;;;;;6.01;100.00;101532.03;4922588;29;20035;-74
2021/03/04 11:04:27;;;;;;;11.15;5.70;;;;;;;5.98;100.00;101526.81;4929278;29;20047;-75
2021/03/04 11:06:53;;;;;;;12.52;5.30;;;;;;;5.95;100.00;101525.09;4934007;28;20042;-74
2021/03/04 11:09:18;;;;;;;12.95;4.68;;;;;;;6.03;100.00;101524.84;4917967;29;20123;-75